createdAt,value
2018-12-29T00:01:19.429Z,101958.36
2018-12-29T00:03:52.863Z,101952.02
2018-12-29T00:06:26.307Z,101946.47
2018-12-29T00:08:59.821Z,101948.62
2018-12-29T00:11:33.361Z,101946.47
2018-12-29T00:14:07.960Z,101948.16
2018-12-29T00:16:41.507Z,101947.73
2018-12-29T00:19:15.011Z,101954.11
2018-12-29T00:21:48.492Z,101944.67
2018-12-29T00:24:21.995Z,101941.34
2018-12-29T00:26:55.619Z,101941.80
2018-12-29T00:29:29.127Z,101934.20
2018-12-29T00:32:02.867Z,101942.67
2018-12-29T00:34:36.313Z,101943.09
2018-12-29T00:37:09.860Z,101942.67
2018-12-29T00:39:43.367Z,101934.15
2018-12-29T00:42:16.988Z,101936.30
2018-12-29T00:44:50.580Z,101923.16
2018-12-29T00:47:24.192Z,101926.98
2018-12-29T00:49:57.673Z,101927.02
2018-12-29T00:52:31.131Z,101922.77
2018-12-29T00:55:04.722Z,101930.87
2018-12-29T00:57:38.272Z,101921.52
2018-12-29T01:00:11.859Z,101925.34
2018-12-29T01:02:45.490Z,101923.22
2018-12-29T01:05:19.113Z,101927.50
2018-12-29T01:07:52.717Z,101930.05
2018-12-29T01:10:26.151Z,101933.45
2018-12-29T01:12:59.868Z,101931.74
2018-12-29T01:15:33.470Z,101928.30
2018-12-29T01:18:07.294Z,101925.29
2018-12-29T01:20:40.842Z,101943.13
2018-12-29T01:23:14.448Z,101934.63
2018-12-29T01:25:47.958Z,101937.61
2018-12-29T01:28:21.528Z,101955.84
2018-12-29T01:30:54.957Z,101951.20
2018-12-29T01:33:28.591Z,101953.75
2018-12-29T01:36:02.097Z,101953.33
2018-12-29T01:38:35.706Z,101946.47
2018-12-29T01:41:09.213Z,101951.98
2018-12-29T01:43:42.744Z,101954.53
2018-12-29T01:46:16.266Z,101957.88
2018-12-29T01:48:49.970Z,101957.09
2018-12-29T01:51:23.468Z,101962.64
2018-12-29T01:53:57.087Z,101954.14
2018-12-29T01:56:30.601Z,101945.62
2018-12-29T01:59:04.240Z,101949.02
2018-12-29T02:01:37.697Z,101949.89
2018-12-29T02:04:11.478Z,101957.91
2018-12-29T02:06:44.903Z,101957.48
2018-12-29T02:09:18.536Z,101955.38
2018-12-29T02:11:51.976Z,101965.87
2018-12-29T02:14:25.593Z,101971.84
2018-12-29T02:16:59.092Z,101972.23
2018-12-29T02:19:32.609Z,101973.16
2018-12-29T02:22:06.146Z,101970.61
2018-12-29T02:24:39.671Z,101960.88
2018-12-29T02:27:13.212Z,101954.96
2018-12-29T02:29:46.816Z,101952.37
2018-12-29T02:32:20.274Z,101950.32
2018-12-29T02:34:53.842Z,101946.89
2018-12-29T02:37:27.456Z,101946.05
2018-12-29T02:40:00.885Z,101942.22
2018-12-29T02:42:34.519Z,101934.06
2018-12-29T02:45:08.122Z,101931.87
2018-12-29T02:47:41.810Z,101944.25
2018-12-29T02:50:15.442Z,101933.94
2018-12-29T02:52:49.051Z,101922.53
2018-12-29T02:55:22.498Z,101922.20
2018-12-29T02:57:56.093Z,101920.14
2018-12-29T03:00:29.663Z,101925.56
2018-12-29T03:03:03.151Z,101914.95
2018-12-29T03:05:36.592Z,101911.61
2018-12-29T03:08:10.145Z,101914.56
2018-12-29T03:10:43.584Z,101915.86
2018-12-29T03:13:17.132Z,101923.93
2018-12-29T03:15:50.636Z,101911.22
2018-12-29T03:18:24.446Z,101908.25
2018-12-29T03:20:58.029Z,101909.55
2018-12-29T03:23:31.674Z,101905.73
2018-12-29T03:26:05.257Z,101906.94
2018-12-29T03:28:38.817Z,101902.30
2018-12-29T03:31:12.274Z,101914.16
2018-12-29T03:33:45.833Z,101911.22
2018-12-29T03:36:19.344Z,101904.95
2018-12-29T03:38:53.001Z,101899.02
2018-12-29T03:41:26.584Z,101902.80
2018-12-29T03:44:00.207Z,101902.83
2018-12-29T03:46:33.804Z,101906.70
2018-12-29T03:49:07.479Z,101904.98
2018-12-29T03:51:40.917Z,101900.30
2018-12-29T03:54:14.523Z,101899.06
2018-12-29T03:56:48.042Z,101894.38
2018-12-29T03:59:21.643Z,101897.31
2018-12-29T04:01:55.152Z,101895.64
2018-12-29T04:04:29.050Z,101889.66
2018-12-29T04:07:02.649Z,101893.98
2018-12-29T04:09:36.188Z,101889.28
2018-12-29T04:12:12.682Z,101892.69
2018-12-29T04:14:46.245Z,101894.83
2018-12-29T04:17:19.696Z,101893.16
2018-12-29T04:19:53.609Z,101895.29
2018-12-29T04:22:27.122Z,101892.31
2018-12-29T04:25:00.836Z,101893.56
2018-12-29T04:27:34.382Z,101884.17
2018-12-29T04:30:08.074Z,101886.34
2018-12-29T04:32:41.613Z,101889.34
2018-12-29T04:35:15.252Z,101881.75
2018-12-29T04:37:48.755Z,101879.92
2018-12-29T04:40:22.326Z,101883.77
2018-12-29T04:42:55.765Z,101875.31
2018-12-29T04:45:29.493Z,101881.28
2018-12-29T04:48:03.027Z,101881.68
2018-12-29T04:50:36.567Z,101885.49
2018-12-29T04:53:10.089Z,101880.81
2018-12-29T04:55:43.648Z,101887.62
2018-12-29T04:58:17.226Z,101883.39
2018-12-29T05:00:50.773Z,101890.61
2018-12-29T05:03:24.291Z,101883.38
2018-12-29T05:05:57.998Z,101885.51
2018-12-29T05:08:31.508Z,101884.23
2018-12-29T05:11:05.045Z,101891.89
2018-12-29T05:13:38.546Z,101891.05
2018-12-29T05:16:13.032Z,101889.41
2018-12-29T05:18:46.814Z,101895.30
2018-12-29T05:21:20.363Z,101895.75
2018-12-29T05:23:53.893Z,101900.00
2018-12-29T05:26:27.522Z,101894.03
2018-12-29T05:29:01.040Z,101893.16
2018-12-29T05:31:34.646Z,101896.12
2018-12-29T05:34:08.153Z,101892.33
2018-12-29T05:36:41.684Z,101891.91
2018-12-29T05:39:15.188Z,101890.21
2018-12-29T05:41:48.904Z,101897.00
2018-12-29T05:44:22.425Z,101894.86
2018-12-29T05:46:55.972Z,101894.36
2018-12-29T05:49:29.489Z,101899.06
2018-12-29T05:52:02.951Z,101893.16
2018-12-29T05:54:36.467Z,101902.91
2018-12-29T05:57:10.232Z,101902.94
2018-12-29T05:59:43.851Z,101906.77
2018-12-29T06:02:17.374Z,101903.36
2018-12-29T06:04:50.953Z,101904.58
2018-12-29T06:07:24.486Z,101908.45
2018-12-29T06:09:57.926Z,101914.40
2018-12-29T06:12:31.561Z,101910.13
2018-12-29T06:15:05.672Z,101914.38
2018-12-29T06:17:39.311Z,101913.12
2018-12-29T06:20:12.819Z,101907.98
2018-12-29T06:22:46.289Z,101906.73
2018-12-29T06:25:19.871Z,101909.70
2018-12-29T06:27:53.498Z,101910.53
2018-12-29T06:30:27.067Z,101899.86
2018-12-29T06:33:00.538Z,101904.13
2018-12-29T06:35:34.049Z,101907.56
2018-12-29T06:38:07.688Z,101909.28
2018-12-29T06:40:41.265Z,101908.45
2018-12-29T06:43:14.756Z,101918.23
2018-12-29T06:45:48.286Z,101916.53
2018-12-29T06:48:21.835Z,101915.22
2018-12-29T06:50:55.336Z,101920.77
2018-12-29T06:53:28.954Z,101916.52
2018-12-29T06:56:02.531Z,101914.00
2018-12-29T06:58:36.175Z,101922.05
2018-12-29T07:01:09.664Z,101916.98
2018-12-29T07:03:43.214Z,101921.22
2018-12-29T07:06:16.727Z,101919.52
2018-12-29T07:08:50.278Z,101916.98
2018-12-29T07:11:23.793Z,101909.30
2018-12-29T07:13:57.433Z,101918.70
2018-12-29T07:16:30.893Z,101922.55
2018-12-29T07:19:04.787Z,101914.02
2018-12-29T07:21:38.299Z,101908.09
2018-12-29T07:24:11.912Z,101919.53
2018-12-29T07:26:45.415Z,101916.57
2018-12-29T07:29:18.978Z,101916.53
2018-12-29T07:31:52.477Z,101916.10
2018-12-29T07:34:25.955Z,101919.52
2018-12-29T07:36:59.466Z,101925.47
2018-12-29T07:39:33.081Z,101927.65
2018-12-29T07:42:06.585Z,101927.63
2018-12-29T07:44:40.208Z,101927.22
2018-12-29T07:47:13.721Z,101926.39
2018-12-29T07:49:47.348Z,101929.38
2018-12-29T07:52:20.938Z,101926.84
2018-12-29T07:54:54.550Z,101931.09
2018-12-29T07:57:28.056Z,101926.88
2018-12-29T08:00:01.703Z,101925.18
2018-12-29T08:02:36.864Z,101920.95
2018-12-29T08:05:10.486Z,101914.60
2018-12-29T08:07:44.000Z,101908.61
2018-12-29T08:10:17.690Z,101907.40
2018-12-29T08:12:51.198Z,101906.52
2018-12-29T08:15:24.913Z,101905.73
2018-12-29T08:17:58.343Z,101902.78
2018-12-29T08:20:31.906Z,101896.84
2018-12-29T08:23:05.500Z,101888.31
2018-12-29T08:25:39.079Z,101892.16
2018-12-29T08:28:12.596Z,101885.38
2018-12-29T08:30:46.147Z,101873.08
2018-12-29T08:33:19.661Z,101877.73
2018-12-29T08:35:53.400Z,101880.31
2018-12-29T08:38:27.066Z,101893.49
2018-12-29T08:41:00.644Z,101893.96
2018-12-29T08:43:34.124Z,101876.95
2018-12-29T08:46:07.711Z,101882.05
2018-12-29T08:48:41.383Z,101881.61
2018-12-29T08:51:16.195Z,101880.34
2018-12-29T08:53:50.075Z,101881.59
2018-12-29T08:56:23.789Z,101872.25
2018-12-29T08:58:57.373Z,101872.70
2018-12-29T09:01:30.992Z,101859.45
2018-12-29T09:04:04.792Z,101853.11
2018-12-29T09:06:38.497Z,101840.36
2018-12-29T09:09:12.000Z,101828.45
2018-12-29T09:11:45.618Z,101831.44
2018-12-29T09:14:19.132Z,101821.63
2018-12-29T09:16:52.839Z,101826.34
2018-12-29T09:19:27.384Z,101829.77
2018-12-29T09:22:01.094Z,101828.88
2018-12-29T09:24:34.680Z,101830.58
2018-12-29T09:27:08.701Z,101827.19
2018-12-29T09:29:42.317Z,101828.45
2018-12-29T09:32:15.927Z,101835.23
2018-12-29T09:34:49.443Z,101837.40
2018-12-29T09:37:23.054Z,101841.25
2018-12-29T09:39:56.650Z,101835.25
2018-12-29T09:42:30.268Z,101835.23
2018-12-29T09:45:04.103Z,101833.13
2018-12-29T09:47:37.725Z,101831.00
2018-12-29T09:50:11.183Z,101826.33
2018-12-29T09:52:44.827Z,101825.92
2018-12-29T09:55:18.409Z,101829.33
2018-12-29T09:57:52.111Z,101821.26
2018-12-29T10:00:25.630Z,101818.72
2018-12-29T10:02:59.292Z,101812.30
2018-12-29T10:05:32.815Z,101812.73
2018-12-29T10:08:06.357Z,101807.19
2018-12-29T10:10:39.979Z,101808.03
2018-12-29T10:13:13.527Z,101803.37
2018-12-29T10:15:47.084Z,101800.81
2018-12-29T10:18:20.749Z,101801.66
2018-12-29T10:20:54.261Z,101797.00
2018-12-29T10:23:27.806Z,101793.63
2018-12-29T10:26:01.336Z,101788.93
2018-12-29T10:28:34.877Z,101782.55
2018-12-29T10:31:08.393Z,101773.17
2018-12-29T10:33:42.012Z,101763.81
2018-12-29T10:36:15.521Z,101764.26
2018-12-29T10:38:49.130Z,101762.99
2018-12-29T10:41:22.597Z,101753.66
2018-12-29T10:43:56.172Z,101756.62
2018-12-29T10:46:29.700Z,101748.53
2018-12-29T10:49:03.326Z,101748.11
2018-12-29T10:51:36.838Z,101748.55
2018-12-29T10:54:10.548Z,101737.88
2018-12-29T10:56:43.989Z,101739.16
2018-12-29T10:59:17.530Z,101738.76
2018-12-29T11:01:51.058Z,101740.88
2018-12-29T11:04:24.616Z,101734.50
2018-12-29T11:06:58.141Z,101732.36
2018-12-29T11:09:31.861Z,101736.61
2018-12-29T11:12:05.380Z,101732.38
2018-12-29T11:14:39.148Z,101727.25
2018-12-29T11:17:12.678Z,101728.10
2018-12-29T11:19:46.241Z,101717.47
2018-12-29T11:22:19.758Z,101714.92
2018-12-29T11:24:53.318Z,101708.97
2018-12-29T11:27:26.832Z,101703.43
2018-12-29T11:30:00.429Z,101702.14
2018-12-29T11:32:33.956Z,101690.66
2018-12-29T11:35:07.503Z,101683.84
2018-12-29T11:37:41.137Z,101677.03
2018-12-29T11:40:14.773Z,101677.05
2018-12-29T11:42:48.878Z,101669.81
2018-12-29T11:45:22.590Z,101672.35
2018-12-29T11:47:56.366Z,101659.99
2018-12-29T11:50:30.185Z,101651.88
2018-12-29T11:53:03.678Z,101646.75
2018-12-29T11:55:37.376Z,101641.19
2018-12-29T11:58:10.820Z,101637.42
2018-12-29T12:00:44.524Z,101634.45
2018-12-29T12:03:18.355Z,101634.89
2018-12-29T12:05:52.240Z,101622.93
2018-12-29T12:08:25.853Z,101619.95
2018-12-29T12:10:59.465Z,101613.97
2018-12-29T12:13:32.905Z,101611.44
2018-12-29T12:16:06.686Z,101616.96
2018-12-29T12:18:40.379Z,101614.42
2018-12-29T12:21:14.208Z,101615.68
2018-12-29T12:23:47.752Z,101609.34
2018-12-29T12:26:21.301Z,101615.70
2018-12-29T12:28:54.827Z,101615.72
2018-12-29T12:31:33.349Z,101608.52
2018-12-29T12:34:09.304Z,101603.81
2018-12-29T12:36:43.200Z,101610.63
2018-12-29T12:39:16.790Z,101610.22
2018-12-29T12:41:50.344Z,101613.17
2018-12-29T12:44:23.942Z,101615.72
2018-12-29T12:46:57.499Z,101624.25
2018-12-29T12:49:31.052Z,101614.06
2018-12-29T12:52:05.243Z,101608.94
2018-12-29T12:54:38.878Z,101609.81
2018-12-29T12:57:13.015Z,101604.27
2018-12-29T12:59:47.005Z,101597.91
2018-12-29T13:02:20.984Z,101596.19
2018-12-29T13:05:01.141Z,101591.50
2018-12-29T13:07:34.844Z,101582.12
2018-12-29T13:10:08.817Z,101576.16
2018-12-29T13:12:42.370Z,101575.75
2018-12-29T13:15:15.942Z,101562.56
2018-12-29T13:18:00.839Z,101557.86
2018-12-29T13:20:59.463Z,101547.64
2018-12-29T13:23:33.614Z,101542.98
2018-12-29T13:26:07.791Z,101538.75
2018-12-29T13:28:41.424Z,101530.22
2018-12-29T13:31:15.026Z,101517.06
2018-12-29T13:33:48.632Z,101505.13
2018-12-29T13:36:22.306Z,101504.73
2018-12-29T13:38:55.841Z,101500.05
2018-12-29T13:41:29.744Z,101492.41
2018-12-29T13:44:03.381Z,101486.44
2018-12-29T13:46:36.998Z,101491.53
2018-12-29T13:49:10.502Z,101493.66
2018-12-29T13:51:44.094Z,101489.38
2018-12-29T13:54:18.065Z,101491.55
2018-12-29T13:57:04.315Z,101491.11
2018-12-29T13:59:37.837Z,101481.30
2018-12-29T14:02:11.735Z,101495.76
2018-12-29T14:04:45.278Z,101482.18
2018-12-29T14:07:18.792Z,101468.10
2018-12-29T14:09:52.431Z,101472.79
2018-12-29T14:12:25.949Z,101467.72
2018-12-29T14:15:00.477Z,101453.63
2018-12-29T14:17:34.009Z,101447.69
2018-12-29T14:20:07.824Z,101444.72
2018-12-29T14:22:41.433Z,101440.91
2018-12-29T14:25:15.136Z,101432.83
2018-12-29T14:27:48.660Z,101429.83
2018-12-29T14:30:22.319Z,101413.65
2018-12-29T14:32:55.832Z,101409.92
2018-12-29T14:35:29.488Z,101404.80
2018-12-29T14:38:03.086Z,101393.78
2018-12-29T14:40:36.661Z,101403.94
2018-12-29T14:43:10.177Z,101394.99
2018-12-29T14:45:43.913Z,101395.41
2018-12-29T14:48:17.447Z,101385.65
2018-12-29T14:50:51.095Z,101384.77
2018-12-29T14:53:24.604Z,101383.99
2018-12-29T14:55:58.402Z,101380.56
2018-12-29T14:58:32.006Z,101381.44
2018-12-29T15:01:05.692Z,101378.45
2018-12-29T15:03:39.291Z,101371.25
2018-12-29T15:06:13.250Z,101380.98
2018-12-29T15:08:46.765Z,101375.89
2018-12-29T15:11:20.303Z,101366.55
2018-12-29T15:13:53.812Z,101358.87
2018-12-29T15:16:27.454Z,101357.16
2018-12-29T15:19:00.979Z,101354.59
2018-12-29T15:21:34.860Z,101347.44
2018-12-29T15:24:09.011Z,101341.90
2018-12-29T15:26:42.635Z,101327.88
2018-12-29T15:29:16.534Z,101327.89
2018-12-29T15:31:50.085Z,101323.64
2018-12-29T15:34:23.586Z,101313.02
2018-12-29T15:36:57.219Z,101313.42
2018-12-29T15:39:33.110Z,101296.92
2018-12-29T15:42:07.334Z,101293.06
2018-12-29T15:44:40.935Z,101292.70
2018-12-29T15:47:14.703Z,101288.84
2018-12-29T15:49:48.494Z,101281.19
2018-12-29T15:52:22.372Z,101282.12
2018-12-29T15:54:56.122Z,101275.73
2018-12-29T15:57:29.695Z,101267.67
2018-12-29T16:00:03.278Z,101252.00
2018-12-29T16:02:36.924Z,101254.63
2018-12-29T16:05:10.633Z,101257.13
2018-12-29T16:07:44.555Z,101257.55
2018-12-29T16:10:18.223Z,101248.98
2018-12-29T16:12:52.019Z,101242.66
2018-12-29T16:15:26.042Z,101236.30
2018-12-29T16:17:59.714Z,101225.69
2018-12-29T16:20:33.229Z,101227.31
2018-12-29T16:23:08.826Z,101237.91
2018-12-29T16:25:42.444Z,101228.59
2018-12-29T16:28:16.014Z,101218.35
2018-12-29T16:30:49.540Z,101227.27
2018-12-29T16:33:23.348Z,101222.59
2018-12-29T16:35:57.330Z,101213.34
2018-12-29T16:38:30.789Z,101216.31
2018-12-29T16:41:04.766Z,101203.10
2018-12-29T16:43:38.321Z,101197.21
2018-12-29T16:46:11.843Z,101197.59
2018-12-29T16:48:45.485Z,101195.40
2018-12-29T16:51:19.472Z,101183.95
2018-12-29T16:53:53.184Z,101190.77
2018-12-29T16:56:26.797Z,101183.92
2018-12-29T16:59:00.338Z,101180.56
2018-12-29T17:01:33.860Z,101175.89
2018-12-29T17:04:07.497Z,101162.28
2018-12-29T17:06:41.293Z,101167.85
2018-12-29T17:09:14.793Z,101146.59
2018-12-29T17:11:52.389Z,101138.02
2018-12-29T17:14:23.708Z,101133.33
2018-12-29T17:16:57.228Z,101132.92
2018-12-29T17:19:31.009Z,101124.37
2018-12-29T17:22:04.522Z,101113.84
2018-12-29T17:24:38.257Z,101110.38
2018-12-29T17:27:11.952Z,101101.91
2018-12-29T17:29:45.518Z,101095.94
2018-12-29T17:32:18.959Z,101091.19
2018-12-29T17:34:52.586Z,101077.14
2018-12-29T17:37:26.099Z,101085.86
2018-12-29T17:39:59.726Z,101081.94
2018-12-29T17:42:33.522Z,101078.91
2018-12-29T17:45:07.139Z,101084.95
2018-12-29T17:47:40.649Z,101085.30
2018-12-29T17:50:14.373Z,101078.91
2018-12-29T17:52:47.888Z,101069.05
2018-12-29T17:55:21.430Z,101060.94
2018-12-29T17:57:55.324Z,101060.42
2018-12-29T18:00:30.323Z,101051.52
2018-12-29T18:03:04.106Z,101055.35
2018-12-29T18:05:37.761Z,101054.53
2018-12-29T18:08:11.369Z,101049.46
2018-12-29T18:10:45.104Z,101042.22
2018-12-29T18:13:18.610Z,101031.52
2018-12-29T18:15:52.257Z,101028.59
2018-12-29T18:18:25.788Z,101023.00
2018-12-29T18:20:59.261Z,101015.27
2018-12-29T18:23:33.224Z,101010.53
2018-12-29T18:26:06.935Z,101001.27
2018-12-29T18:28:40.528Z,101005.98
2018-12-29T18:31:14.028Z,101000.70
2018-12-29T18:33:47.651Z,101000.42
2018-12-29T18:36:21.364Z,101003.00
2018-12-29T18:38:54.887Z,100991.87
2018-12-29T18:41:28.795Z,100981.31
2018-12-29T18:44:02.409Z,100984.80
2018-12-29T18:46:36.024Z,100983.11
2018-12-29T18:49:09.687Z,100976.55
2018-12-29T18:51:43.350Z,100967.28
2018-12-29T18:54:16.885Z,100967.19
2018-12-29T18:56:50.435Z,100968.00
2018-12-29T18:59:23.947Z,100963.70
2018-12-29T19:01:58.066Z,100967.03
2018-12-29T19:04:31.701Z,100972.70
2018-12-29T19:07:05.309Z,100966.56
2018-12-29T19:09:38.908Z,100955.67
2018-12-29T19:12:12.365Z,100949.67
2018-12-29T19:14:45.810Z,100939.50
2018-12-29T19:17:19.389Z,100949.54
2018-12-29T19:19:53.100Z,100941.98
2018-12-29T19:22:26.797Z,100944.47
2018-12-29T19:25:00.374Z,100938.05
2018-12-29T19:27:34.164Z,100934.63
2018-12-29T19:30:08.280Z,100927.41
2018-12-29T19:32:41.978Z,100928.28
2018-12-29T19:35:15.872Z,100921.86
2018-12-29T19:37:49.422Z,100911.19
2018-12-29T19:40:22.895Z,100905.20
2018-12-29T19:42:56.793Z,100892.88
2018-12-29T19:45:30.387Z,100893.78
2018-12-29T19:48:04.313Z,100889.52
2018-12-29T19:50:38.113Z,100885.21
2018-12-29T19:53:11.736Z,100884.81
2018-12-29T19:55:45.269Z,100875.80
2018-12-29T19:58:18.741Z,100868.66
2018-12-29T20:00:52.365Z,100861.28
2018-12-29T20:03:25.909Z,100859.56
2018-12-29T20:05:59.513Z,100853.19
2018-12-29T20:08:33.805Z,100851.52
2018-12-29T20:11:07.380Z,100842.45
2018-12-29T20:13:40.951Z,100842.50
2018-12-29T20:16:14.934Z,100843.37
2018-12-29T20:18:48.937Z,100836.59
2018-12-29T20:21:22.391Z,100838.19
2018-12-29T20:23:55.967Z,100835.15
2018-12-29T20:26:29.588Z,100834.23
2018-12-29T20:29:03.470Z,100830.20
2018-12-29T20:31:36.980Z,100828.14
2018-12-29T20:34:10.799Z,100827.89
2018-12-29T20:36:44.325Z,100830.80
2018-12-29T20:39:17.908Z,100835.06
2018-12-29T20:41:51.395Z,100837.94
2018-12-29T20:44:24.945Z,100837.97
2018-12-29T20:47:01.429Z,100836.61
2018-12-29T20:49:35.077Z,100830.70
2018-12-29T20:52:08.587Z,100832.47
2018-12-29T20:54:42.259Z,100830.75
2018-12-29T20:57:16.146Z,100831.59
2018-12-29T20:59:49.697Z,100830.63
2018-12-29T21:02:23.303Z,100837.22
2018-12-29T21:04:56.858Z,100841.49
2018-12-29T21:07:30.743Z,100842.11
2018-12-29T21:10:05.912Z,100846.42
2018-12-29T21:12:39.556Z,100842.64
2018-12-29T21:15:13.096Z,100850.79
2018-12-29T21:17:46.960Z,100842.95
2018-12-29T21:20:20.692Z,100849.73
2018-12-29T21:22:54.125Z,100849.99
2018-12-29T21:25:27.735Z,100840.61
2018-12-29T21:28:01.458Z,100840.48
2018-12-29T21:30:34.999Z,100838.53
2018-12-29T21:33:08.518Z,100843.92
2018-12-29T21:35:42.000Z,100840.48
2018-12-29T21:38:15.855Z,100837.97
2018-12-29T21:40:49.468Z,100841.23
2018-12-29T21:43:22.981Z,100840.48
2018-12-29T21:45:56.520Z,100839.25
2018-12-29T21:48:30.211Z,100836.83
2018-12-29T21:51:03.831Z,100845.01
2018-12-29T21:53:37.341Z,100843.65
2018-12-29T21:56:10.965Z,100845.28
2018-12-29T21:58:44.499Z,100837.66
2018-12-29T22:01:17.962Z,100839.81
2018-12-29T22:03:51.553Z,100842.50
2018-12-29T22:06:25.094Z,100846.67
2018-12-29T22:08:58.693Z,100846.28
2018-12-29T22:11:32.309Z,100846.41
2018-12-29T22:14:05.887Z,100857.13
2018-12-29T22:16:39.492Z,100851.63
2018-12-29T22:19:13.014Z,100849.47
2018-12-29T22:21:46.613Z,100855.30
2018-12-29T22:24:20.111Z,100852.67
2018-12-29T22:26:53.817Z,100863.47
2018-12-29T22:29:27.334Z,100866.75
2018-12-29T22:32:00.859Z,100865.11
2018-12-29T22:34:34.367Z,100860.73
2018-12-29T22:37:07.998Z,100862.04
2018-12-29T22:39:41.426Z,100864.11
2018-12-29T22:42:14.959Z,100872.30
2018-12-29T22:44:48.482Z,100876.12
2018-12-29T22:47:22.032Z,100880.47
2018-12-29T22:49:55.541Z,100868.62
2018-12-29T22:52:29.103Z,100881.16
2018-12-29T22:55:02.637Z,100872.25
2018-12-29T22:57:36.413Z,100875.33
2018-12-29T23:00:13.870Z,100872.45
2018-12-29T23:02:47.519Z,100871.86
2018-12-29T23:05:21.296Z,100870.10
2018-12-29T23:07:54.920Z,100866.39
2018-12-29T23:10:28.354Z,100870.14
2018-12-29T23:13:02.270Z,100871.82
2018-12-29T23:15:35.698Z,100876.05
2018-12-29T23:18:09.308Z,100865.27
2018-12-29T23:20:48.992Z,100864.83
2018-12-29T23:23:18.340Z,100878.08
2018-12-29T23:25:52.137Z,100869.97
2018-12-29T23:28:25.766Z,100876.00
2018-12-29T23:30:59.548Z,100867.78
2018-12-29T23:33:33.158Z,100875.92
2018-12-29T23:36:06.694Z,100881.98
2018-12-29T23:38:40.236Z,100888.65
2018-12-29T23:41:13.808Z,100881.88
2018-12-29T23:43:47.592Z,100887.45
2018-12-29T23:46:21.118Z,100893.84
2018-12-29T23:48:54.752Z,100893.04
2018-12-29T23:51:28.323Z,100906.89
2018-12-29T23:54:01.960Z,100901.81
2018-12-29T23:56:35.647Z,100902.17
2018-12-29T23:59:09.278Z,100906.45
